sensor_id;sensor_type;location;lat;lon;timestamp;temperature;humidity
20416;DHT22;10367;52.202;5.996;2024-03-23T00:56:17;7.10;99.90
20416;DHT22;10367;52.202;5.996;2024-03-23T00:58:44;7.10;99.90
20416;DHT22;10367;52.202;5.996;2024-03-23T01:01:11;7.10;99.90
20416;DHT22;10367;52.202;5.996;2024-03-23T01:03:39;7.10;99.90
20416;DHT22;10367;52.202;5.996;2024-03-23T01:06:06;7.10;99.90
20416;DHT22;10367;52.202;5.996;2024-03-23T01:08:33;7.10;99.90
20416;DHT22;10367;52.202;5.996;2024-03-23T01:11:02;7.10;99.90
20416;DHT22;10367;52.202;5.996;2024-03-23T01:13:30;7.00;99.90
20416;DHT22;10367;52.202;5.996;2024-03-23T01:15:57;7.00;99.90
20416;DHT22;10367;52.202;5.996;2024-03-23T01:18:24;6.90;99.90
20416;DHT22;10367;52.202;5.996;2024-03-23T01:20:52;7.00;99.90
20416;DHT22;10367;52.202;5.996;2024-03-23T01:23:20;6.90;99.90
20416;DHT22;10367;52.202;5.996;2024-03-23T01:25:52;6.80;99.90
20416;DHT22;10367;52.202;5.996;2024-03-23T01:28:21;6.80;99.90
20416;DHT22;10367;52.202;5.996;2024-03-23T01:30:48;6.70;99.90
20416;DHT22;10367;52.202;5.996;2024-03-23T01:33:16;6.60;99.90
20416;DHT22;10367;52.202;5.996;2024-03-23T01:35:42;6.50;99.90
20416;DHT22;10367;52.202;5.996;2024-03-23T01:38:10;6.40;99.90
20416;DHT22;10367;52.202;5.996;2024-03-23T01:40:37;6.30;99.90
20416;DHT22;10367;52.202;5.996;2024-03-23T01:43:05;6.30;99.90
20416;DHT22;10367;52.202;5.996;2024-03-23T01:45:35;6.30;99.90
20416;DHT22;10367;52.202;5.996;2024-03-23T01:48:03;6.20;99.90
20416;DHT22;10367;52.202;5.996;2024-03-23T01:50:31;6.10;99.90
20416;DHT22;10367;52.202;5.996;2024-03-23T01:53:01;6.00;99.90
20416;DHT22;10367;52.202;5.996;2024-03-23T01:55:28;6.00;99.90
20416;DHT22;10367;52.202;5.996;2024-03-23T01:57:56;6.00;99.90
20416;DHT22;10367;52.202;5.996;2024-03-23T02:00:23;6.00;99.90
20416;DHT22;10367;52.202;5.996;2024-03-23T02:02:53;6.00;99.90
20416;DHT22;10367;52.202;5.996;2024-03-23T02:05:19;6.00;99.90
20416;DHT22;10367;52.202;5.996;2024-03-23T02:07:47;5.90;99.90
20416;DHT22;10367;52.202;5.996;2024-03-23T02:10:14;5.80;99.90
20416;DHT22;10367;52.202;5.996;2024-03-23T02:12:41;5.90;99.90
20416;DHT22;10367;52.202;5.996;2024-03-23T02:15:08;5.80;99.90
20416;DHT22;10367;52.202;5.996;2024-03-23T02:17:36;5.80;99.90
20416;DHT22;10367;52.202;5.996;2024-03-23T02:20:04;5.80;99.90
20416;DHT22;10367;52.202;5.996;2024-03-23T02:22:37;5.80;99.90
20416;DHT22;10367;52.202;5.996;2024-03-23T02:25:05;5.80;99.90
20416;DHT22;10367;52.202;5.996;2024-03-23T02:27:33;5.70;99.90
20416;DHT22;10367;52.202;5.996;2024-03-23T02:30:02;5.80;99.90
20416;DHT22;10367;52.202;5.996;2024-03-23T02:32:30;5.80;99.90
20416;DHT22;10367;52.202;5.996;2024-03-23T02:34:57;5.70;99.90
20416;DHT22;10367;52.202;5.996;2024-03-23T02:37:24;5.70;99.90
20416;DHT22;10367;52.202;5.996;2024-03-23T02:39:51;5.70;99.90
20416;DHT22;10367;52.202;5.996;2024-03-23T02:42:20;5.70;99.90
20416;DHT22;10367;52.202;5.996;2024-03-23T02:44:47;5.60;99.90
20416;DHT22;10367;52.202;5.996;2024-03-23T02:47:15;5.60;99.90
20416;DHT22;10367;52.202;5.996;2024-03-23T02:49:41;5.60;99.90
20416;DHT22;10367;52.202;5.996;2024-03-23T02:52:09;5.60;99.90
20416;DHT22;10367;52.202;5.996;2024-03-23T02:54:35;5.50;99.90
20416;DHT22;10367;52.202;5.996;2024-03-23T02:57:03;5.50;99.90
20416;DHT22;10367;52.202;5.996;2024-03-23T02:59:32;5.40;99.90
20416;DHT22;10367;52.202;5.996;2024-03-23T03:02:00;5.40;99.90
20416;DHT22;10367;52.202;5.996;2024-03-23T03:04:27;5.50;99.90
20416;DHT22;10367;52.202;5.996;2024-03-23T03:06:55;5.40;99.90
20416;DHT22;10367;52.202;5.996;2024-03-23T03:09:21;5.40;99.90
20416;DHT22;10367;52.202;5.996;2024-03-23T03:11:49;5.40;99.90
20416;DHT22;10367;52.202;5.996;2024-03-23T03:14:16;5.30;99.90
20416;DHT22;10367;52.202;5.996;2024-03-23T03:16:45;5.30;99.90
20416;DHT22;10367;52.202;5.996;2024-03-23T03:19:12;5.30;99.90
20416;DHT22;10367;52.202;5.996;2024-03-23T03:21:39;5.30;99.90
20416;DHT22;10367;52.202;5.996;2024-03-23T03:24:06;5.30;99.90
20416;DHT22;10367;52.202;5.996;2024-03-23T03:26:34;5.40;99.90
20416;DHT22;10367;52.202;5.996;2024-03-23T03:29:01;5.30;99.90
20416;DHT22;10367;52.202;5.996;2024-03-23T03:31:29;5.30;99.90
20416;DHT22;10367;52.202;5.996;2024-03-23T03:33:57;5.20;99.90
20416;DHT22;10367;52.202;5.996;2024-03-23T03:36:25;5.30;99.90
20416;DHT22;10367;52.202;5.996;2024-03-23T03:38:51;5.20;99.90
20416;DHT22;10367;52.202;5.996;2024-03-23T03:41:19;5.20;99.90
20416;DHT22;10367;52.202;5.996;2024-03-23T03:43:46;5.20;99.90
20416;DHT22;10367;52.202;5.996;2024-03-23T03:46:13;5.20;99.90
20416;DHT22;10367;52.202;5.996;2024-03-23T03:48:40;5.20;99.90
20416;DHT22;10367;52.202;5.996;2024-03-23T03:51:09;5.10;99.90
20416;DHT22;10367;52.202;5.996;2024-03-23T03:53:36;5.10;99.90
20416;DHT22;10367;52.202;5.996;2024-03-23T03:56:04;5.10;99.90
20416;DHT22;10367;52.202;5.996;2024-03-23T03:58:30;5.10;99.90
20416;DHT22;10367;52.202;5.996;2024-03-23T04:00:58;5.10;99.90
20416;DHT22;10367;52.202;5.996;2024-03-23T04:03:25;5.10;99.90
20416;DHT22;10367;52.202;5.996;2024-03-23T04:05:53;5.10;99.90
20416;DHT22;10367;52.202;5.996;2024-03-23T04:08:21;5.00;99.90
20416;DHT22;10367;52.202;5.996;2024-03-23T04:10:49;5.00;99.90
20416;DHT22;10367;52.202;5.996;2024-03-23T04:13:16;5.00;99.90
20416;DHT22;10367;52.202;5.996;2024-03-23T04:15:43;5.00;99.90
20416;DHT22;10367;52.202;5.996;2024-03-23T04:18:10;4.90;99.90
20416;DHT22;10367;52.202;5.996;2024-03-23T04:20:38;4.90;99.90
20416;DHT22;10367;52.202;5.996;2024-03-23T04:23:05;4.90;99.90
20416;DHT22;10367;52.202;5.996;2024-03-23T04:25:34;4.80;99.90
20416;DHT22;10367;52.202;5.996;2024-03-23T04:28:00;4.90;99.90
20416;DHT22;10367;52.202;5.996;2024-03-23T04:30:28;4.90;99.90
20416;DHT22;10367;52.202;5.996;2024-03-23T04:32:55;4.90;99.90
20416;DHT22;10367;52.202;5.996;2024-03-23T04:35:24;4.80;99.90
20416;DHT22;10367;52.202;5.996;2024-03-23T04:37:51;4.70;99.90
20416;DHT22;10367;52.202;5.996;2024-03-23T04:40:19;4.70;99.90
20416;DHT22;10367;52.202;5.996;2024-03-23T04:42:49;4.70;99.90
20416;DHT22;10367;52.202;5.996;2024-03-23T04:45:16;4.60;99.90
20416;DHT22;10367;52.202;5.996;2024-03-23T04:47:44;4.60;99.90
20416;DHT22;10367;52.202;5.996;2024-03-23T04:50:12;4.50;99.90
20416;DHT22;10367;52.202;5.996;2024-03-23T04:52:39;4.50;99.90
20416;DHT22;10367;52.202;5.996;2024-03-23T04:55:07;4.50;99.90
20416;DHT22;10367;52.202;5.996;2024-03-23T04:57:35;4.50;99.90
20416;DHT22;10367;52.202;5.996;2024-03-23T05:00:03;4.50;99.90
20416;DHT22;10367;52.202;5.996;2024-03-23T05:02:41;4.50;99.90
20416;DHT22;10367;52.202;5.996;2024-03-23T05:05:08;4.50;99.90
20416;DHT22;10367;52.202;5.996;2024-03-23T05:07:35;4.50;99.90
20416;DHT22;10367;52.202;5.996;2024-03-23T05:10:02;4.50;99.90
20416;DHT22;10367;52.202;5.996;2024-03-23T05:12:30;4.60;99.90
20416;DHT22;10367;52.202;5.996;2024-03-23T05:14:57;4.60;99.90
20416;DHT22;10367;52.202;5.996;2024-03-23T05:17:26;4.60;99.90
20416;DHT22;10367;52.202;5.996;2024-03-23T05:19:53;4.50;99.90
20416;DHT22;10367;52.202;5.996;2024-03-23T05:22:20;4.40;99.90
20416;DHT22;10367;52.202;5.996;2024-03-23T05:24:47;4.40;99.90
20416;DHT22;10367;52.202;5.996;2024-03-23T05:27:15;4.50;99.90
20416;DHT22;10367;52.202;5.996;2024-03-23T05:29:41;4.50;99.90
20416;DHT22;10367;52.202;5.996;2024-03-23T05:32:09;4.50;99.90
20416;DHT22;10367;52.202;5.996;2024-03-23T05:34:37;4.60;99.90
20416;DHT22;10367;52.202;5.996;2024-03-23T05:37:05;4.50;99.90
20416;DHT22;10367;52.202;5.996;2024-03-23T05:39:32;4.50;99.90
20416;DHT22;10367;52.202;5.996;2024-03-23T05:42:03;4.50;99.90
20416;DHT22;10367;52.202;5.996;2024-03-23T05:44:30;4.50;99.90
20416;DHT22;10367;52.202;5.996;2024-03-23T05:46:57;4.50;99.90
20416;DHT22;10367;52.202;5.996;2024-03-23T05:49:24;4.40;99.90
20416;DHT22;10367;52.202;5.996;2024-03-23T05:51:54;4.50;99.90
20416;DHT22;10367;52.202;5.996;2024-03-23T05:54:21;4.50;99.90
20416;DHT22;10367;52.202;5.996;2024-03-23T05:56:49;4.50;99.90
20416;DHT22;10367;52.202;5.996;2024-03-23T05:59:16;4.50;99.90
20416;DHT22;10367;52.202;5.996;2024-03-23T06:01:46;4.40;99.90
20416;DHT22;10367;52.202;5.996;2024-03-23T06:04:13;4.50;99.90
20416;DHT22;10367;52.202;5.996;2024-03-23T06:06:40;4.40;99.90
20416;DHT22;10367;52.202;5.996;2024-03-23T06:09:08;4.50;99.90
20416;DHT22;10367;52.202;5.996;2024-03-23T06:11:36;4.50;99.90
20416;DHT22;10367;52.202;5.996;2024-03-23T06:14:03;4.50;99.90
20416;DHT22;10367;52.202;5.996;2024-03-23T06:16:31;4.60;99.90
20416;DHT22;10367;52.202;5.996;2024-03-23T06:18:58;4.60;99.90
20416;DHT22;10367;52.202;5.996;2024-03-23T06:21:26;4.80;99.90
20416;DHT22;10367;52.202;5.996;2024-03-23T06:23:53;4.90;99.90
20416;DHT22;10367;52.202;5.996;2024-03-23T06:26:22;5.00;99.90
20416;DHT22;10367;52.202;5.996;2024-03-23T06:28:49;5.10;99.90
20416;DHT22;10367;52.202;5.996;2024-03-23T06:31:17;5.20;99.90
20416;DHT22;10367;52.202;5.996;2024-03-23T06:33:44;5.30;99.90
20416;DHT22;10367;52.202;5.996;2024-03-23T06:36:12;5.30;99.90
20416;DHT22;10367;52.202;5.996;2024-03-23T06:38:38;5.40;99.90
20416;DHT22;10367;52.202;5.996;2024-03-23T06:41:06;5.40;99.90
20416;DHT22;10367;52.202;5.996;2024-03-23T06:43:34;5.30;99.90
20416;DHT22;10367;52.202;5.996;2024-03-23T06:46:03;5.20;99.90
20416;DHT22;10367;52.202;5.996;2024-03-23T06:48:30;5.20;99.90
20416;DHT22;10367;52.202;5.996;2024-03-23T06:50:59;5.20;99.90
20416;DHT22;10367;52.202;5.996;2024-03-23T06:53:26;5.20;99.90
20416;DHT22;10367;52.202;5.996;2024-03-23T06:55:54;5.20;99.90
20416;DHT22;10367;52.202;5.996;2024-03-23T06:58:23;5.20;99.90
20416;DHT22;10367;52.202;5.996;2024-03-23T07:00:52;5.10;99.90
20416;DHT22;10367;52.202;5.996;2024-03-23T07:03:19;5.10;99.90
20416;DHT22;10367;52.202;5.996;2024-03-23T07:05:47;5.20;99.90
20416;DHT22;10367;52.202;5.996;2024-03-23T07:08:14;5.30;99.90
20416;DHT22;10367;52.202;5.996;2024-03-23T07:10:47;5.30;99.90
20416;DHT22;10367;52.202;5.996;2024-03-23T07:13:13;5.40;99.90
20416;DHT22;10367;52.202;5.996;2024-03-23T07:15:41;5.50;99.90
20416;DHT22;10367;52.202;5.996;2024-03-23T07:18:10;5.50;99.90
20416;DHT22;10367;52.202;5.996;2024-03-23T07:20:37;5.60;99.90
20416;DHT22;10367;52.202;5.996;2024-03-23T07:23:04;5.70;99.90
20416;DHT22;10367;52.202;5.996;2024-03-23T07:25:31;5.70;99.90
20416;DHT22;10367;52.202;5.996;2024-03-23T07:27:58;5.70;99.90
20416;DHT22;10367;52.202;5.996;2024-03-23T07:30:26;5.80;99.90
20416;DHT22;10367;52.202;5.996;2024-03-23T07:32:53;5.90;99.90
20416;DHT22;10367;52.202;5.996;2024-03-23T07:35:22;6.00;99.90
20416;DHT22;10367;52.202;5.996;2024-03-23T07:37:48;6.00;99.90
20416;DHT22;10367;52.202;5.996;2024-03-23T07:40:16;6.10;99.90
20416;DHT22;10367;52.202;5.996;2024-03-23T07:42:43;6.30;99.90
20416;DHT22;10367;52.202;5.996;2024-03-23T07:45:11;6.30;99.90
20416;DHT22;10367;52.202;5.996;2024-03-23T07:47:38;6.40;99.90
20416;DHT22;10367;52.202;5.996;2024-03-23T07:50:06;6.50;99.90
20416;DHT22;10367;52.202;5.996;2024-03-23T07:52:34;6.50;99.90
20416;DHT22;10367;52.202;5.996;2024-03-23T07:55:02;6.60;99.90
20416;DHT22;10367;52.202;5.996;2024-03-23T07:57:31;6.60;99.90
20416;DHT22;10367;52.202;5.996;2024-03-23T07:59:58;6.70;99.90
20416;DHT22;10367;52.202;5.996;2024-03-23T08:02:25;6.70;99.90
20416;DHT22;10367;52.202;5.996;2024-03-23T08:04:53;6.90;99.90
20416;DHT22;10367;52.202;5.996;2024-03-23T08:07:19;6.90;99.90
20416;DHT22;10367;52.202;5.996;2024-03-23T08:09:48;7.00;99.90
20416;DHT22;10367;52.202;5.996;2024-03-23T08:12:15;7.00;99.90
20416;DHT22;10367;52.202;5.996;2024-03-23T08:14:43;7.10;99.90
20416;DHT22;10367;52.202;5.996;2024-03-23T08:17:09;7.30;99.90
20416;DHT22;10367;52.202;5.996;2024-03-23T08:19:37;7.40;99.90
20416;DHT22;10367;52.202;5.996;2024-03-23T08:22:03;7.50;99.90
20416;DHT22;10367;52.202;5.996;2024-03-23T08:24:31;7.60;99.90
20416;DHT22;10367;52.202;5.996;2024-03-23T08:26:59;7.70;99.90
20416;DHT22;10367;52.202;5.996;2024-03-23T08:29:27;7.90;99.90
20416;DHT22;10367;52.202;5.996;2024-03-23T08:31:54;8.00;99.90
20416;DHT22;10367;52.202;5.996;2024-03-23T08:34:21;8.10;99.90
20416;DHT22;10367;52.202;5.996;2024-03-23T08:36:48;8.20;99.90
20416;DHT22;10367;52.202;5.996;2024-03-23T08:39:16;8.30;99.90
20416;DHT22;10367;52.202;5.996;2024-03-23T08:41:42;8.20;99.90
20416;DHT22;10367;52.202;5.996;2024-03-23T08:44:13;8.20;99.90
20416;DHT22;10367;52.202;5.996;2024-03-23T08:46:40;8.10;99.90
20416;DHT22;10367;52.202;5.996;2024-03-23T08:49:08;8.10;99.90
20416;DHT22;10367;52.202;5.996;2024-03-23T08:51:34;8.30;99.90
20416;DHT22;10367;52.202;5.996;2024-03-23T08:54:02;8.50;99.90
20416;DHT22;10367;52.202;5.996;2024-03-23T08:56:29;8.70;99.90
20416;DHT22;10367;52.202;5.996;2024-03-23T08:58:57;8.70;99.90
20416;DHT22;10367;52.202;5.996;2024-03-23T09:01:25;8.80;99.90
20416;DHT22;10367;52.202;5.996;2024-03-23T09:03:52;8.70;99.90
20416;DHT22;10367;52.202;5.996;2024-03-23T09:06:20;8.80;99.90
20416;DHT22;10367;52.202;5.996;2024-03-23T09:08:47;8.70;99.90
20416;DHT22;10367;52.202;5.996;2024-03-23T09:11:14;8.80;99.90
20416;DHT22;10367;52.202;5.996;2024-03-23T09:13:42;8.90;99.90
20416;DHT22;10367;52.202;5.996;2024-03-23T09:16:08;9.00;99.90
20416;DHT22;10367;52.202;5.996;2024-03-23T09:18:38;9.10;99.90
20416;DHT22;10367;52.202;5.996;2024-03-23T09:21:11;9.40;99.90
20416;DHT22;10367;52.202;5.996;2024-03-23T09:23:39;9.60;99.90
20416;DHT22;10367;52.202;5.996;2024-03-23T09:26:06;9.60;99.90
20416;DHT22;10367;52.202;5.996;2024-03-23T09:28:34;9.30;99.90
20416;DHT22;10367;52.202;5.996;2024-03-23T09:31:04;9.20;99.90
20416;DHT22;10367;52.202;5.996;2024-03-23T09:33:33;9.30;99.90
20416;DHT22;10367;52.202;5.996;2024-03-23T09:36:04;9.40;99.90
20416;DHT22;10367;52.202;5.996;2024-03-23T09:38:32;9.50;99.90
20416;DHT22;10367;52.202;5.996;2024-03-23T09:41:06;9.70;99.90
20416;DHT22;10367;52.202;5.996;2024-03-23T09:43:34;10.00;99.90
20416;DHT22;10367;52.202;5.996;2024-03-23T09:46:02;10.00;99.90
20416;DHT22;10367;52.202;5.996;2024-03-23T09:48:30;10.30;99.90
20416;DHT22;10367;52.202;5.996;2024-03-23T09:50:57;10.30;99.90
20416;DHT22;10367;52.202;5.996;2024-03-23T09:53:26;10.30;99.90
20416;DHT22;10367;52.202;5.996;2024-03-23T09:55:54;10.40;99.90
20416;DHT22;10367;52.202;5.996;2024-03-23T09:58:23;10.60;99.90
20416;DHT22;10367;52.202;5.996;2024-03-23T10:00:50;11.00;99.90
20416;DHT22;10367;52.202;5.996;2024-03-23T10:03:18;11.20;99.90
20416;DHT22;10367;52.202;5.996;2024-03-23T10:05:45;11.20;99.90
20416;DHT22;10367;52.202;5.996;2024-03-23T10:08:19;11.30;99.90
20416;DHT22;10367;52.202;5.996;2024-03-23T10:10:47;11.20;99.90
20416;DHT22;10367;52.202;5.996;2024-03-23T10:13:24;11.30;99.90
20416;DHT22;10367;52.202;5.996;2024-03-23T10:15:58;11.20;99.90
20416;DHT22;10367;52.202;5.996;2024-03-23T10:18:26;11.10;99.90
20416;DHT22;10367;52.202;5.996;2024-03-23T10:21:07;11.20;99.90
20416;DHT22;10367;52.202;5.996;2024-03-23T10:23:35;11.20;99.90
20416;DHT22;10367;52.202;5.996;2024-03-23T10:26:20;11.40;99.90
20416;DHT22;10367;52.202;5.996;2024-03-23T10:28:52;11.60;99.90
20416;DHT22;10367;52.202;5.996;2024-03-23T10:31:20;11.00;99.90
20416;DHT22;10367;52.202;5.996;2024-03-23T10:33:48;10.40;99.90
20416;DHT22;10367;52.202;5.996;2024-03-23T10:36:16;10.00;99.90
20416;DHT22;10367;52.202;5.996;2024-03-23T10:38:44;9.50;99.90
20416;DHT22;10367;52.202;5.996;2024-03-23T10:41:11;9.80;99.90
20416;DHT22;10367;52.202;5.996;2024-03-23T10:43:40;10.10;99.90
20416;DHT22;10367;52.202;5.996;2024-03-23T10:46:07;10.30;99.90
20416;DHT22;10367;52.202;5.996;2024-03-23T10:48:35;10.00;99.90
20416;DHT22;10367;52.202;5.996;2024-03-23T10:51:02;9.40;99.90
20416;DHT22;10367;52.202;5.996;2024-03-23T10:53:32;8.60;99.90
20416;DHT22;10367;52.202;5.996;2024-03-23T10:56:00;8.40;99.90
20416;DHT22;10367;52.202;5.996;2024-03-23T10:58:30;8.50;99.90
20416;DHT22;10367;52.202;5.996;2024-03-23T11:00:59;8.40;99.90
20416;DHT22;10367;52.202;5.996;2024-03-23T11:03:34;8.30;99.90
20416;DHT22;10367;52.202;5.996;2024-03-23T11:06:01;8.20;99.90
20416;DHT22;10367;52.202;5.996;2024-03-23T11:08:33;8.20;99.90
20416;DHT22;10367;52.202;5.996;2024-03-23T11:11:18;8.40;99.90
20416;DHT22;10367;52.202;5.996;2024-03-23T11:13:48;8.80;99.90
20416;DHT22;10367;52.202;5.996;2024-03-23T11:16:17;9.30;99.90
20416;DHT22;10367;52.202;5.996;2024-03-23T11:18:48;9.70;99.90
20416;DHT22;10367;52.202;5.996;2024-03-23T11:24:16;9.60;99.90
20416;DHT22;10367;52.202;5.996;2024-03-23T11:26:44;9.10;99.90
20416;DHT22;10367;52.202;5.996;2024-03-23T11:29:13;9.00;99.90
20416;DHT22;10367;52.202;5.996;2024-03-23T11:31:47;9.20;99.90
20416;DHT22;10367;52.202;5.996;2024-03-23T11:34:15;9.50;99.90
20416;DHT22;10367;52.202;5.996;2024-03-23T11:36:42;9.90;99.90
20416;DHT22;10367;52.202;5.996;2024-03-23T11:39:14;10.50;99.90
20416;DHT22;10367;52.202;5.996;2024-03-23T11:41:46;10.40;99.90
20416;DHT22;10367;52.202;5.996;2024-03-23T11:44:15;10.50;99.90
20416;DHT22;10367;52.202;5.996;2024-03-23T11:46:42;10.50;99.90
20416;DHT22;10367;52.202;5.996;2024-03-23T11:49:21;10.60;99.90
20416;DHT22;10367;52.202;5.996;2024-03-23T11:51:49;10.90;99.90
20416;DHT22;10367;52.202;5.996;2024-03-23T11:54:19;11.10;99.90
20416;DHT22;10367;52.202;5.996;2024-03-23T11:56:56;11.40;99.90
20416;DHT22;10367;52.202;5.996;2024-03-23T11:59:32;11.90;99.90
20416;DHT22;10367;52.202;5.996;2024-03-23T12:01:59;11.90;99.90
20416;DHT22;10367;52.202;5.996;2024-03-23T12:04:29;11.70;99.90
20416;DHT22;10367;52.202;5.996;2024-03-23T12:07:14;11.40;99.90
20416;DHT22;10367;52.202;5.996;2024-03-23T12:09:45;10.80;99.90
20416;DHT22;10367;52.202;5.996;2024-03-23T12:12:15;10.30;99.90
20416;DHT22;10367;52.202;5.996;2024-03-23T12:14:43;10.00;99.90
20416;DHT22;10367;52.202;5.996;2024-03-23T12:17:11;10.10;99.90
20416;DHT22;10367;52.202;5.996;2024-03-23T12:19:40;10.10;99.90
20416;DHT22;10367;52.202;5.996;2024-03-23T12:22:08;10.60;99.90
20416;DHT22;10367;52.202;5.996;2024-03-23T12:24:36;10.80;99.90
20416;DHT22;10367;52.202;5.996;2024-03-23T12:27:04;11.00;99.90
20416;DHT22;10367;52.202;5.996;2024-03-23T12:29:32;11.40;99.90
20416;DHT22;10367;52.202;5.996;2024-03-23T12:32:00;11.50;99.90
20416;DHT22;10367;52.202;5.996;2024-03-23T12:34:28;11.80;99.90
20416;DHT22;10367;52.202;5.996;2024-03-23T12:36:58;11.90;99.90
20416;DHT22;10367;52.202;5.996;2024-03-23T12:39:25;12.20;99.90
20416;DHT22;10367;52.202;5.996;2024-03-23T12:41:52;12.20;99.90
20416;DHT22;10367;52.202;5.996;2024-03-23T12:44:20;12.50;99.90
20416;DHT22;10367;52.202;5.996;2024-03-23T12:46:47;12.80;99.90
20416;DHT22;10367;52.202;5.996;2024-03-23T12:49:14;13.10;99.90
20416;DHT22;10367;52.202;5.996;2024-03-23T12:51:48;12.60;99.90
20416;DHT22;10367;52.202;5.996;2024-03-23T12:54:22;12.50;99.90
20416;DHT22;10367;52.202;5.996;2024-03-23T12:56:48;12.90;99.90
20416;DHT22;10367;52.202;5.996;2024-03-23T12:59:16;12.80;99.90
20416;DHT22;10367;52.202;5.996;2024-03-23T13:01:44;12.70;99.90
20416;DHT22;10367;52.202;5.996;2024-03-23T13:04:12;12.90;99.90
20416;DHT22;10367;52.202;5.996;2024-03-23T13:06:39;13.00;99.90
20416;DHT22;10367;52.202;5.996;2024-03-23T13:09:06;12.90;99.90
20416;DHT22;10367;52.202;5.996;2024-03-23T13:11:34;13.10;99.90
20416;DHT22;10367;52.202;5.996;2024-03-23T13:14:02;13.10;99.90
20416;DHT22;10367;52.202;5.996;2024-03-23T13:16:30;13.30;99.90
20416;DHT22;10367;52.202;5.996;2024-03-23T13:18:58;13.10;99.90
20416;DHT22;10367;52.202;5.996;2024-03-23T13:21:25;13.10;99.90
20416;DHT22;10367;52.202;5.996;2024-03-23T13:23:52;12.80;99.90
20416;DHT22;10367;52.202;5.996;2024-03-23T13:26:19;12.10;99.90
20416;DHT22;10367;52.202;5.996;2024-03-23T13:28:48;11.60;99.90
20416;DHT22;10367;52.202;5.996;2024-03-23T13:31:14;11.20;99.90
20416;DHT22;10367;52.202;5.996;2024-03-23T13:33:42;10.80;99.90
20416;DHT22;10367;52.202;5.996;2024-03-23T13:36:10;10.50;99.90
20416;DHT22;10367;52.202;5.996;2024-03-23T13:38:38;10.30;99.90
20416;DHT22;10367;52.202;5.996;2024-03-23T13:41:06;10.30;99.90
20416;DHT22;10367;52.202;5.996;2024-03-23T13:43:34;10.50;99.90
20416;DHT22;10367;52.202;5.996;2024-03-23T13:46:03;10.60;99.90
20416;DHT22;10367;52.202;5.996;2024-03-23T13:48:30;10.50;99.90
20416;DHT22;10367;52.202;5.996;2024-03-23T13:50:58;10.40;99.90
20416;DHT22;10367;52.202;5.996;2024-03-23T13:53:25;10.20;99.90
20416;DHT22;10367;52.202;5.996;2024-03-23T13:55:52;10.20;99.90
20416;DHT22;10367;52.202;5.996;2024-03-23T13:58:19;9.90;99.90
20416;DHT22;10367;52.202;5.996;2024-03-23T14:00:47;9.80;99.90
20416;DHT22;10367;52.202;5.996;2024-03-23T14:03:15;9.60;99.90
20416;DHT22;10367;52.202;5.996;2024-03-23T14:05:43;9.50;99.90
20416;DHT22;10367;52.202;5.996;2024-03-23T14:08:10;9.50;99.90
20416;DHT22;10367;52.202;5.996;2024-03-23T14:10:40;9.70;99.90
20416;DHT22;10367;52.202;5.996;2024-03-23T14:13:07;9.90;99.90
20416;DHT22;10367;52.202;5.996;2024-03-23T14:15:35;10.30;99.90
20416;DHT22;10367;52.202;5.996;2024-03-23T14:18:03;10.30;99.90
20416;DHT22;10367;52.202;5.996;2024-03-23T14:20:32;10.10;99.90
20416;DHT22;10367;52.202;5.996;2024-03-23T14:23:00;10.10;99.90
20416;DHT22;10367;52.202;5.996;2024-03-23T14:25:28;10.30;99.90
20416;DHT22;10367;52.202;5.996;2024-03-23T14:27:55;10.70;99.90
20416;DHT22;10367;52.202;5.996;2024-03-23T14:30:24;10.90;99.90
20416;DHT22;10367;52.202;5.996;2024-03-23T14:32:51;11.10;99.90
20416;DHT22;10367;52.202;5.996;2024-03-23T14:35:18;11.40;99.90
20416;DHT22;10367;52.202;5.996;2024-03-23T14:37:46;11.30;99.90
20416;DHT22;10367;52.202;5.996;2024-03-23T14:40:14;11.20;99.90
20416;DHT22;10367;52.202;5.996;2024-03-23T14:42:41;11.20;99.90
20416;DHT22;10367;52.202;5.996;2024-03-23T14:45:09;11.00;99.90
20416;DHT22;10367;52.202;5.996;2024-03-23T14:47:35;11.00;99.90
20416;DHT22;10367;52.202;5.996;2024-03-23T14:50:03;11.00;99.90
20416;DHT22;10367;52.202;5.996;2024-03-23T14:52:30;11.00;99.90
20416;DHT22;10367;52.202;5.996;2024-03-23T14:54:59;11.20;99.90
20416;DHT22;10367;52.202;5.996;2024-03-23T14:57:26;11.40;99.90
20416;DHT22;10367;52.202;5.996;2024-03-23T14:59:55;11.60;99.90
20416;DHT22;10367;52.202;5.996;2024-03-23T15:02:22;11.50;99.90
20416;DHT22;10367;52.202;5.996;2024-03-23T15:04:50;11.80;99.90
20416;DHT22;10367;52.202;5.996;2024-03-23T15:07:17;11.60;99.90
20416;DHT22;10367;52.202;5.996;2024-03-23T15:09:44;11.70;99.90
20416;DHT22;10367;52.202;5.996;2024-03-23T15:12:12;11.80;99.90
20416;DHT22;10367;52.202;5.996;2024-03-23T15:14:40;11.80;99.90
20416;DHT22;10367;52.202;5.996;2024-03-23T15:17:07;12.00;99.90
20416;DHT22;10367;52.202;5.996;2024-03-23T15:19:35;12.30;99.90
20416;DHT22;10367;52.202;5.996;2024-03-23T15:22:02;12.70;99.90
20416;DHT22;10367;52.202;5.996;2024-03-23T15:24:30;12.70;99.90
20416;DHT22;10367;52.202;5.996;2024-03-23T15:26:57;12.60;99.90
20416;DHT22;10367;52.202;5.996;2024-03-23T15:29:26;12.10;99.90
20416;DHT22;10367;52.202;5.996;2024-03-23T15:31:53;12.10;99.90
20416;DHT22;10367;52.202;5.996;2024-03-23T15:34:22;12.30;99.90
20416;DHT22;10367;52.202;5.996;2024-03-23T15:36:48;12.20;99.90
20416;DHT22;10367;52.202;5.996;2024-03-23T15:39:17;12.30;99.90
20416;DHT22;10367;52.202;5.996;2024-03-23T15:41:44;11.90;99.90
20416;DHT22;10367;52.202;5.996;2024-03-23T15:44:12;11.70;99.90
20416;DHT22;10367;52.202;5.996;2024-03-23T15:46:40;11.20;99.90
20416;DHT22;10367;52.202;5.996;2024-03-23T15:49:08;11.30;99.90
20416;DHT22;10367;52.202;5.996;2024-03-23T15:51:35;11.70;99.90
20416;DHT22;10367;52.202;5.996;2024-03-23T15:54:05;12.10;99.90
20416;DHT22;10367;52.202;5.996;2024-03-23T15:56:32;12.00;99.90
20416;DHT22;10367;52.202;5.996;2024-03-23T15:59:00;11.60;99.90
20416;DHT22;10367;52.202;5.996;2024-03-23T16:01:32;11.30;99.90
20416;DHT22;10367;52.202;5.996;2024-03-23T16:04:02;11.40;99.90
20416;DHT22;10367;52.202;5.996;2024-03-23T16:06:29;11.50;99.90
20416;DHT22;10367;52.202;5.996;2024-03-23T16:08:58;11.10;99.90
20416;DHT22;10367;52.202;5.996;2024-03-23T16:11:24;10.90;99.90
20416;DHT22;10367;52.202;5.996;2024-03-23T16:13:52;10.70;99.90
20416;DHT22;10367;52.202;5.996;2024-03-23T16:16:19;10.70;99.90
20416;DHT22;10367;52.202;5.996;2024-03-23T16:18:48;10.60;99.90
20416;DHT22;10367;52.202;5.996;2024-03-23T16:21:16;10.70;99.90
20416;DHT22;10367;52.202;5.996;2024-03-23T16:23:44;10.80;99.90
20416;DHT22;10367;52.202;5.996;2024-03-23T16:26:12;10.70;99.90
20416;DHT22;10367;52.202;5.996;2024-03-23T16:28:42;10.50;99.90
20416;DHT22;10367;52.202;5.996;2024-03-23T16:31:12;10.30;99.90
20416;DHT22;10367;52.202;5.996;2024-03-23T16:33:38;10.00;99.90
20416;DHT22;10367;52.202;5.996;2024-03-23T16:36:08;9.70;99.90
20416;DHT22;10367;52.202;5.996;2024-03-23T16:38:37;9.80;99.90
20416;DHT22;10367;52.202;5.996;2024-03-23T16:41:06;9.90;99.90
20416;DHT22;10367;52.202;5.996;2024-03-23T16:43:34;9.80;99.90